createdAt,value
2019-03-31T00:05:02.936Z,12.60
2019-03-31T00:08:24.803Z,12.27
2019-03-31T00:10:56.946Z,10.93
2019-03-31T00:13:58.784Z,11.87
2019-03-31T00:16:32.950Z,12.40
2019-03-31T00:19:24.112Z,12.90
2019-03-31T00:22:15.301Z,11.77
2019-03-31T00:25:17.479Z,16.57
2019-03-31T00:28:13.419Z,18.67
2019-03-31T00:33:48.125Z,21.30
2019-03-31T00:36:39.330Z,13.63
2019-03-31T00:39:49.292Z,14.20
2019-03-31T00:42:21.089Z,20.10
2019-03-31T00:45:12.256Z,15.77
2019-03-31T00:56:53.994Z,11.90
2019-03-31T00:59:56.082Z,12.73
2019-03-31T01:02:58.680Z,13.20
2019-03-31T01:05:51.121Z,12.50
2019-03-31T01:08:35.662Z,11.80
2019-03-31T01:14:29.762Z,12.57
2019-03-31T01:34:35.241Z,12.80
2019-03-31T01:46:16.321Z,11.90
2019-03-31T01:51:46.732Z,13.33
2019-03-31T01:57:46.728Z,13.50
2019-03-31T02:03:51.458Z,12.50
2019-03-31T02:06:34.812Z,14.17
2019-03-31T02:17:44.580Z,14.00
2019-03-31T02:21:13.632Z,11.63
2019-03-31T02:24:16.393Z,13.30
2019-03-31T02:29:35.608Z,14.10
2019-03-31T02:38:27.619Z,13.30
2019-03-31T02:41:10.382Z,11.53
2019-03-31T02:44:05.088Z,14.00
2019-03-31T02:46:56.355Z,13.10
2019-03-31T02:49:47.534Z,13.03
2019-03-31T02:52:38.677Z,13.57
2019-03-31T02:55:41.321Z,12.50
2019-03-31T02:58:44.465Z,13.20
2019-03-31T03:01:47.884Z,13.40
2019-03-31T03:10:41.664Z,12.20
2019-03-31T03:19:29.363Z,16.83
2019-03-31T03:22:20.598Z,15.30
2019-03-31T03:25:56.370Z,14.57
2019-03-31T03:31:20.156Z,12.60
2019-03-31T03:34:11.360Z,14.10
2019-03-31T03:37:02.976Z,14.47
2019-03-31T03:40:05.196Z,14.50
2019-03-31T03:42:38.939Z,14.27
2019-03-31T03:45:37.660Z,14.07
2019-03-31T03:48:09.447Z,13.67
2019-03-31T03:51:00.605Z,15.50
2019-03-31T03:56:37.028Z,16.13
2019-03-31T03:59:47.004Z,15.80
2019-03-31T04:02:38.177Z,16.53
2019-03-31T04:08:37.464Z,15.87
2019-03-31T04:11:31.442Z,16.07
2019-03-31T04:14:22.653Z,15.83
2019-03-31T04:17:13.818Z,15.00
2019-03-31T04:25:53.961Z,16.97
2019-03-31T04:28:27.239Z,16.57
2019-03-31T04:31:29.812Z,16.20
2019-03-31T04:34:02.141Z,16.50
2019-03-31T04:42:24.101Z,16.20
2019-03-31T04:48:23.949Z,15.40
2019-03-31T04:51:26.548Z,15.93
2019-03-31T04:53:59.201Z,15.30
2019-03-31T04:56:52.105Z,14.90
2019-03-31T04:59:54.319Z,16.07
2019-03-31T05:05:22.978Z,17.23
2019-03-31T05:10:48.280Z,17.90
2019-03-31T05:13:39.415Z,15.60
2019-03-31T05:16:30.606Z,16.77
2019-03-31T05:22:06.349Z,17.27
2019-03-31T05:27:42.480Z,17.67
2019-03-31T05:30:38.229Z,16.47
2019-03-31T05:33:34.303Z,16.80
2019-03-31T05:41:37.960Z,17.43
2019-03-31T05:50:16.306Z,18.90
2019-03-31T05:53:07.457Z,17.70
2019-03-31T05:56:09.247Z,17.17
2019-03-31T05:58:53.314Z,17.20
2019-03-31T06:04:09.459Z,17.47
2019-03-31T06:07:00.655Z,18.17
2019-03-31T06:12:36.619Z,16.63
2019-03-31T06:15:39.425Z,17.73
2019-03-31T06:18:13.503Z,17.90
2019-03-31T06:21:34.938Z,18.00
2019-03-31T06:24:08.969Z,17.00
2019-03-31T06:27:18.989Z,17.57
2019-03-31T06:36:18.541Z,16.03
2019-03-31T06:39:09.709Z,17.47
2019-03-31T06:44:55.436Z,17.83
2019-03-31T06:47:38.825Z,18.23
2019-03-31T06:53:39.805Z,16.23
2019-03-31T06:56:35.058Z,15.73
2019-03-31T06:59:09.777Z,18.80
2019-03-31T07:02:19.799Z,19.57
2019-03-31T07:08:29.145Z,18.27
2019-03-31T07:13:49.055Z,18.90
2019-03-31T07:16:40.210Z,20.10
2019-03-31T07:19:31.372Z,19.07
2019-03-31T07:28:23.560Z,14.10
2019-03-31T07:31:14.715Z,15.20
2019-03-31T07:34:26.200Z,13.50
2019-03-31T07:40:49.761Z,13.23
2019-03-31T07:46:26.019Z,13.43
2019-03-31T07:49:17.257Z,14.60
2019-03-31T07:52:19.410Z,12.90
2019-03-31T07:57:36.741Z,13.50
2019-03-31T08:00:39.682Z,13.03
2019-03-31T08:03:13.090Z,12.90
2019-03-31T08:08:53.394Z,14.60
2019-03-31T08:14:46.962Z,13.70
2019-03-31T08:17:49.628Z,13.00
2019-03-31T08:20:42.853Z,13.67
2019-03-31T08:23:45.266Z,12.27
2019-03-31T08:26:17.019Z,13.27
2019-03-31T08:29:26.992Z,12.90
2019-03-31T08:32:28.433Z,13.80
2019-03-31T08:38:36.527Z,13.60
2019-03-31T08:41:29.189Z,12.63
2019-03-31T08:44:39.184Z,12.53
2019-03-31T08:59:10.096Z,13.07
2019-03-31T09:02:20.193Z,12.10
2019-03-31T09:11:40.307Z,12.60
2019-03-31T09:14:50.279Z,12.57
2019-03-31T09:17:41.429Z,10.90
2019-03-31T09:20:34.459Z,12.50
2019-03-31T09:23:17.044Z,11.40
2019-03-31T09:26:10.175Z,13.37
2019-03-31T09:32:07.317Z,12.30
2019-03-31T09:43:27.567Z,13.03
2019-03-31T09:46:00.475Z,13.20
2019-03-31T09:48:51.603Z,12.73
2019-03-31T09:51:42.950Z,13.40
2019-03-31T09:54:34.154Z,11.77
2019-03-31T09:57:25.266Z,12.60
2019-03-31T10:00:40.148Z,13.73
2019-03-31T10:03:23.778Z,12.10
2019-03-31T10:06:09.963Z,11.17
2019-03-31T10:11:58.064Z,12.97
2019-03-31T10:14:30.614Z,12.90
2019-03-31T10:20:42.848Z,12.57
2019-03-31T10:23:14.653Z,11.63
2019-03-31T10:26:31.138Z,11.57
2019-03-31T10:29:07.084Z,11.13
2019-03-31T10:31:41.569Z,11.90
2019-03-31T10:34:32.859Z,12.43
2019-03-31T10:37:35.336Z,12.80
2019-03-31T10:43:55.411Z,10.47
2019-03-31T10:46:47.529Z,12.50
2019-03-31T10:49:38.706Z,10.80
2019-03-31T10:52:30.024Z,10.87
2019-03-31T10:58:22.858Z,10.90
2019-03-31T11:00:55.064Z,11.40
2019-03-31T11:04:06.241Z,12.27
2019-03-31T11:13:55.020Z,11.30
2019-03-31T11:16:59.368Z,11.13
2019-03-31T11:19:44.653Z,10.50
2019-03-31T11:22:37.790Z,9.70
2019-03-31T11:26:08.305Z,10.33
2019-03-31T11:29:10.626Z,9.70
2019-03-31T11:32:06.093Z,9.97
2019-03-31T11:35:08.543Z,9.90
2019-03-31T11:40:39.534Z,11.60
2019-03-31T11:46:08.747Z,10.80
2019-03-31T11:48:56.625Z,10.40
2019-03-31T11:57:22.157Z,11.00
2019-03-31T11:59:54.490Z,9.30
2019-03-31T12:02:46.078Z,10.67
2019-03-31T12:06:15.690Z,11.87
2019-03-31T12:09:08.063Z,10.83
2019-03-31T12:17:30.023Z,10.40
2019-03-31T12:20:20.151Z,9.90
2019-03-31T12:23:14.748Z,9.17
2019-03-31T12:26:16.491Z,9.50
2019-03-31T12:29:12.106Z,9.50
2019-03-31T12:35:02.454Z,10.60
2019-03-31T12:37:47.396Z,8.90
2019-03-31T12:40:58.814Z,10.93
2019-03-31T12:43:30.645Z,8.40
2019-03-31T12:46:13.012Z,8.90
2019-03-31T12:48:57.231Z,8.87
2019-03-31T12:51:42.248Z,9.93
2019-03-31T13:06:26.341Z,9.80
2019-03-31T13:08:58.445Z,9.50
2019-03-31T13:14:32.510Z,10.20
2019-03-31T13:20:10.158Z,10.00
2019-03-31T13:26:17.448Z,9.33
2019-03-31T13:29:02.113Z,9.60
2019-03-31T13:31:47.637Z,10.77
2019-03-31T13:34:38.431Z,10.63
2019-03-31T13:37:39.425Z,11.73
2019-03-31T13:43:52.061Z,10.17
2019-03-31T13:49:26.860Z,9.30
2019-03-31T13:55:03.681Z,9.80
2019-03-31T13:58:14.258Z,9.30
2019-03-31T14:01:08.067Z,9.83
2019-03-31T14:03:42.504Z,8.20
2019-03-31T14:06:52.505Z,9.50
2019-03-31T14:09:54.204Z,9.50
2019-03-31T14:15:19.175Z,9.20
2019-03-31T14:20:54.095Z,10.37
2019-03-31T14:23:38.431Z,9.87
2019-03-31T14:26:10.759Z,9.03
2019-03-31T14:29:13.191Z,9.17
2019-03-31T14:34:30.533Z,8.50
2019-03-31T14:37:33.465Z,8.10
2019-03-31T14:40:06.760Z,7.80
2019-03-31T14:42:57.998Z,8.63
2019-03-31T14:49:25.991Z,9.97
2019-03-31T14:52:27.338Z,7.60
2019-03-31T14:55:15.055Z,8.73
2019-03-31T14:58:26.470Z,7.97
2019-03-31T15:04:16.822Z,8.83
2019-03-31T15:06:48.917Z,8.33
2019-03-31T15:09:50.895Z,8.60
2019-03-31T15:12:25.033Z,8.10
2019-03-31T15:15:15.426Z,8.03
2019-03-31T15:39:12.329Z,7.73
2019-03-31T15:44:55.375Z,8.77
2019-03-31T15:47:40.125Z,8.00
2019-03-31T15:50:12.131Z,9.00
2019-03-31T15:53:23.350Z,9.13
2019-03-31T15:56:15.909Z,7.70
2019-03-31T15:59:08.172Z,8.87
2019-03-31T16:01:59.372Z,8.40
2019-03-31T16:04:49.992Z,8.80
2019-03-31T16:07:41.350Z,8.83
2019-03-31T16:10:43.704Z,8.57
2019-03-31T16:13:16.544Z,7.80
2019-03-31T16:16:07.265Z,8.23
2019-03-31T16:18:58.146Z,8.20
2019-03-31T16:27:21.681Z,7.90
2019-03-31T16:30:11.744Z,8.40
2019-03-31T16:33:22.423Z,8.93
2019-03-31T16:36:13.327Z,7.90
2019-03-31T16:39:16.021Z,8.70
2019-03-31T16:41:49.861Z,8.83
2019-03-31T16:47:44.904Z,9.73
2019-03-31T16:50:37.281Z,8.97
2019-03-31T16:55:55.893Z,8.73
2019-03-31T16:58:46.557Z,8.30
2019-03-31T17:01:37.160Z,8.30
2019-03-31T17:07:15.627Z,9.23
2019-03-31T17:13:12.105Z,9.50
2019-03-31T17:16:02.717Z,8.80
2019-03-31T17:18:53.310Z,8.90
2019-03-31T17:21:44.190Z,9.43
2019-03-31T17:27:23.968Z,9.13
2019-03-31T17:30:14.659Z,10.77
2019-03-31T17:36:40.205Z,9.60
2019-03-31T17:41:58.849Z,11.80
2019-03-31T17:47:39.566Z,10.40
2019-03-31T18:07:03.200Z,11.37
2019-03-31T18:09:53.852Z,9.10
2019-03-31T18:13:03.575Z,9.80
2019-03-31T18:21:40.426Z,9.20
2019-03-31T18:24:31.093Z,8.97
2019-03-31T18:33:23.397Z,9.97
2019-03-31T18:35:54.640Z,10.83
2019-03-31T18:38:45.300Z,9.60
2019-03-31T18:41:36.255Z,10.70
2019-03-31T18:47:11.530Z,12.00
2019-03-31T18:49:42.760Z,12.00
2019-03-31T18:59:34.296Z,12.67
2019-03-31T19:02:49.482Z,12.63
2019-03-31T19:09:09.414Z,11.90
2019-03-31T19:12:18.948Z,13.10
2019-03-31T19:18:29.911Z,12.77
2019-03-31T19:21:39.564Z,12.80
2019-03-31T19:30:19.336Z,12.70
2019-03-31T19:33:48.431Z,12.57
2019-03-31T19:40:01.681Z,13.10
2019-03-31T19:43:30.537Z,12.83
2019-03-31T19:46:20.745Z,13.10
2019-03-31T19:49:32.292Z,12.67
2019-03-31T19:55:25.537Z,11.97
2019-03-31T19:58:55.061Z,12.20
2019-03-31T20:02:04.596Z,12.10
2019-03-31T20:11:02.589Z,12.20
2019-03-31T20:13:54.702Z,13.13
2019-03-31T20:19:47.043Z,11.30
2019-03-31T20:22:56.588Z,13.50
2019-03-31T20:26:06.105Z,11.87
2019-03-31T20:28:57.696Z,11.90
2019-03-31T20:32:07.214Z,12.00
2019-03-31T20:44:47.331Z,14.47
2019-03-31T20:50:18.029Z,15.27
2019-03-31T20:53:00.195Z,15.60
2019-03-31T20:55:50.783Z,15.87
2019-03-31T20:58:42.252Z,15.30
2019-03-31T21:01:32.923Z,16.37
2019-03-31T21:04:23.529Z,16.17
2019-03-31T21:07:14.203Z,17.70
2019-03-31T21:09:45.574Z,17.63
2019-03-31T21:12:36.153Z,18.00
2019-03-31T21:15:45.935Z,18.17
2019-03-31T21:26:48.282Z,22.77
2019-03-31T21:29:52.139Z,20.60
2019-03-31T21:32:35.754Z,19.93
2019-03-31T21:35:09.101Z,20.83
2019-03-31T21:38:19.211Z,21.20
2019-03-31T21:41:09.914Z,22.80
2019-03-31T21:46:47.007Z,22.50
2019-03-31T21:52:40.873Z,22.77
2019-03-31T21:55:43.028Z,23.90
2019-03-31T21:58:17.311Z,23.77
2019-03-31T22:01:08.031Z,23.90
2019-03-31T22:03:58.676Z,24.70
2019-03-31T22:12:21.357Z,27.97
2019-03-31T22:25:03.394Z,28.10
2019-03-31T22:28:13.550Z,26.97
2019-03-31T22:31:23.410Z,26.50
2019-03-31T22:34:14.218Z,27.30
2019-03-31T22:43:16.331Z,27.10
2019-03-31T22:46:18.805Z,28.53
2019-03-31T22:48:51.540Z,26.23
2019-03-31T22:54:33.514Z,27.17
2019-03-31T23:03:19.515Z,27.67
2019-03-31T23:06:31.151Z,28.40
2019-03-31T23:09:23.769Z,25.80
2019-03-31T23:12:14.422Z,26.23
2019-03-31T23:14:57.450Z,25.83
2019-03-31T23:17:30.507Z,27.80
2019-03-31T23:23:33.574Z,26.40
2019-03-31T23:26:06.661Z,26.77
2019-03-31T23:28:57.469Z,25.87
2019-03-31T23:35:03.125Z,25.60
2019-03-31T23:37:43.512Z,24.93
2019-03-31T23:40:53.293Z,26.50
2019-03-31T23:43:43.961Z,26.20
2019-03-31T23:46:34.601Z,27.57
2019-03-31T23:49:39.318Z,27.17
2019-03-31T23:52:31.855Z,28.20
